メインページ
METAR-TAF:

METAR-TAF

空港 :

ダラス / フォートワース, テキサス州, アメリカ合衆国

ダラス・フォートワース国際空港

緯度: 32-53-49N, 経度: 097-01-19W, 海抜: 183m

現時点の気象観測

当レポートは7分前の11:53(UTC)に作成
北西の風 9kt
気温 10°C
湿度 76%
気圧 1021 hPa
視程: 16.1km
晴天

METAR: KDFW 231153Z 32009KT 10SM CLR 10/06 A3014 RMK AO2 SLP202 T01000056 10128 20094 53006

時間: 07:00 (12:00 UTC)

予報

当レポートは36分前の11:24(UTC)に作成
予報は23日の 12時(UTC)から 24日の 18時(UTC)まで有効
の風 12kt
視程: 10km
晴天
24日の 0700時(UTC)から
南/南東の風 4kt
視程: 10km
晴天
24日の 1500時(UTC)から
の風 11kt
視程: 10km
晴天

TAF: KDFW 231124Z 2312/2418 35012KT P6SM SKC FM240700 15004KT P6SM SKC FM241500 17011KT P6SM SKC

4,000以上の空港の気象観測と天気予報(METAR報とTAF報)

利用可能な観測所は地図上に黄色い丸と赤い丸で示す。

丸の上にカーソルを重ねると観測所名を参照できる。

次にクリックすると気象観測と天気予報を参照できる。

マップの切り替え:黒色「×」印の緑ボタンをクリックして拡大、「-」印の緑ボタンをクリックして縮小、緑色の三角印をクリックして隣りの地図に切り替え


METAR-TAF: